Time;durP1;ratioP1;P1;durP2;ratioP2;P2;SDS_P1;SDS_P2;PMS_P1;PMS_P2;Temp;Humidity;BMP_temperature;BMP_pressure;BME280_temperature;BME280_humidity;BME280_pressure;Samples;Min_cycle;Max_cycle;Signal;HPM_P1;HPM_P2
2023/06/05 00:01:09;;;;;;;;;;;;;;;-144.99;89.93;52211.66;5022267;28;20032;-64
2023/06/05 00:03:39;;;;;;;;;;;;;;;-144.99;89.94;52174.97;5037747;28;19929;-66
2023/06/05 00:06:06;;;;;;;;;;;;;;;-144.99;90.30;52227.97;5039950;28;20456;-64
2023/06/05 00:08:32;;;;;;;;;;;;;;;-144.99;90.40;52179.06;5039916;28;19929;-64
2023/06/05 00:10:59;;;;;;;;;;;;;;;-144.99;90.41;52219.81;5041557;28;19929;-66
2023/06/05 00:13:26;;;;;;;;;;;;;;;-144.99;90.41;52183.13;5040772;28;20091;-66
2023/06/05 00:15:53;;;;;;;;;;;;;;;-144.99;90.54;52211.66;5046486;28;19929;-66
2023/06/05 00:18:20;;;;;;;;;;;;;;;-144.99;90.63;52215.75;5041340;28;19961;-66
2023/06/05 00:20:48;;;;;;;;;;;;;;;-144.99;90.99;52260.56;5036165;28;19928;-66
2023/06/05 00:23:15;;;;;;;;;;;;;;;-144.99;91.25;52211.66;5040481;28;19936;-66
2023/06/05 00:25:41;;;;;;;;;;;;;;;-144.99;91.40;52219.81;5041002;28;19929;-68
2023/06/05 00:28:08;;;;;;;;;;;;;;;-144.99;91.28;52213.69;5036155;28;19933;-66
2023/06/05 00:30:35;;;;;;;;;;;;;;;-144.99;91.47;52234.09;5027361;28;19949;-65
2023/06/05 00:33:02;;;;;;;;;;;;;;;-144.99;91.60;52244.28;5029144;28;20100;-65
2023/06/05 00:35:28;;;;;;;;;;;;;;;-144.99;91.47;52215.75;5038222;28;19929;-64
2023/06/05 00:37:56;;;;;;;;;;;;;;;-144.99;91.52;52211.66;5038255;28;19925;-65
2023/06/05 00:40:23;;;;;;;;;;;;;;;-144.99;91.63;52207.59;5032715;28;19929;-64
2023/06/05 00:42:50;;;;;;;;;;;;;;;-144.99;91.91;52201.47;5027528;28;20319;-63
2023/06/05 00:45:16;;;;;;;;;;;;;;;-144.99;92.00;52219.81;5021219;28;20043;-64
2023/06/05 00:47:43;;;;;;;;;;;;;;;-144.99;92.22;52213.69;5024854;28;19952;-64
2023/06/05 00:50:12;;;;;;;;;;;;;;;-144.99;92.23;52256.50;5022356;28;19929;-65
2023/06/05 00:52:39;;;;;;;;;;;;;;;-144.99;92.32;52203.50;5015362;28;19929;-63
2023/06/05 00:55:08;;;;;;;;;;;;;;;-144.99;92.37;52223.88;5023147;28;19975;-67
2023/06/05 00:57:35;;;;;;;;;;;;;;;-144.99;92.57;52193.31;5023922;28;20473;-67
2023/06/05 01:00:06;;;;;;;;;;;;;;;-144.99;92.54;52238.16;5023309;28;19933;-68
2023/06/05 01:02:34;;;;;;;;;;;;;;;-144.99;92.71;52248.34;5014693;28;20357;-67
2023/06/05 01:05:00;;;;;;;;;;;;;;;-144.99;92.67;52215.75;5023515;28;20477;-68
2023/06/05 01:07:27;;;;;;;;;;;;;;;-144.99;92.96;52223.88;5023694;28;20312;-67
2023/06/05 01:09:54;;;;;;;;;;;;;;;-144.99;93.03;52215.75;5022628;28;20031;-67
2023/06/05 01:12:26;;;;;;;;;;;;;;;-144.99;92.82;52215.75;5012879;28;19930;-68
2023/06/05 01:14:58;;;;;;;;;;;;;;;-144.99;93.08;52252.44;4671984;28;9999708;-68
2023/06/05 01:17:25;;;;;;;;;;;;;;;-144.99;93.23;52197.41;5023348;28;19976;-67
2023/06/05 01:19:52;;;;;;;;;;;;;;;-144.99;93.27;52236.13;5020881;28;19929;-67
2023/06/05 01:22:19;;;;;;;;;;;;;;;-144.99;93.01;52199.44;5022829;28;20413;-68
2023/06/05 01:24:47;;;;;;;;;;;;;;;-144.99;93.19;52205.53;5019639;28;19937;-73
2023/06/05 01:27:16;;;;;;;;;;;;;;;-144.99;93.17;52223.88;5022588;28;20213;-66
2023/06/05 01:29:48;;;;;;;;;;;;;;;-144.99;93.32;52260.56;5018659;28;20295;-67
2023/06/05 01:32:17;;;;;;;;;;;;;;;-144.99;93.38;52223.88;5023094;28;20024;-67
2023/06/05 01:34:48;;;;;;;;;;;;;;;-144.99;93.57;52227.97;5017782;28;19929;-63
2023/06/05 01:37:18;;;;;;;;;;;;;;;-144.99;93.48;52227.97;5025191;28;20238;-66
2023/06/05 01:39:48;;;;;;;;;;;;;;;-144.99;93.96;52195.34;5022148;28;19945;-63
2023/06/05 01:42:15;;;;;;;;;;;;;;;-144.99;94.04;52203.50;5020411;28;19936;-64
2023/06/05 01:44:42;;;;;;;;;;;;;;;-144.99;93.93;52240.19;5023338;28;19933;-65
2023/06/05 01:47:09;;;;;;;;;;;;;;;-144.99;94.10;52174.97;5023335;28;20013;-64
2023/06/05 01:49:36;;;;;;;;;;;;;;;-144.99;94.05;52236.13;5025889;28;20298;-66
2023/06/05 01:52:02;;;;;;;;;;;;;;;-144.99;94.05;52248.34;5019246;28;19929;-66
2023/06/05 01:54:32;;;;;;;;;;;;;;;-144.99;94.26;52221.84;5025881;28;19948;-66
2023/06/05 01:57:00;;;;;;;;;;;;;;;-144.99;94.19;52236.13;5026341;28;19992;-66
2023/06/05 01:59:27;;;;;;;;;;;;;;;-144.99;94.38;52240.19;5023922;28;20038;-67
2023/06/05 02:01:54;;;;;;;;;;;;;;;-144.99;94.56;52223.88;5018590;28;20304;-67
2023/06/05 02:04:21;;;;;;;;;;;;;;;-144.99;94.84;52223.88;5024905;28;19929;-67
2023/06/05 02:06:48;;;;;;;;;;;;;;;-144.99;94.66;52227.97;5020359;28;19934;-67
2023/06/05 02:09:15;;;;;;;;;;;;;;;-144.99;94.76;52199.44;5023608;28;19956;-67
2023/06/05 02:11:45;;;;;;;;;;;;;;;-144.99;94.93;52232.03;5022009;28;19929;-67
2023/06/05 02:14:13;;;;;;;;;;;;;;;-144.99;94.81;52203.50;5016625;28;20245;-70
2023/06/05 02:16:41;;;;;;;;;;;;;;;-144.99;94.61;52203.50;5013226;28;19925;-70
2023/06/05 02:19:07;;;;;;;;;;;;;;;-144.99;94.42;52232.03;5021782;28;19929;-70
2023/06/05 02:21:35;;;;;;;;;;;;;;;-144.99;94.52;52227.97;5026104;28;19937;-70
2023/06/05 02:24:02;;;;;;;;;;;;;;;-144.99;94.57;52193.31;5025833;28;19928;-71
2023/06/05 02:26:29;;;;;;;;;;;;;;;-144.99;94.71;52219.81;5023181;28;19940;-69
2023/06/05 02:28:57;;;;;;;;;;;;;;;-144.99;94.74;52240.19;5023853;28;20348;-69
2023/06/05 02:31:25;;;;;;;;;;;;;;;-144.99;94.79;52268.72;5025080;28;19936;-69
2023/06/05 02:33:52;;;;;;;;;;;;;;;-144.99;94.84;52223.88;5025041;28;19925;-69
2023/06/05 02:36:19;;;;;;;;;;;;;;;-144.99;94.99;52232.03;5026088;28;19956;-69
2023/06/05 02:38:49;;;;;;;;;;;;;;;-144.99;95.11;52211.66;5024338;28;19929;-69
2023/06/05 02:41:16;;;;;;;;;;;;;;;-144.99;94.91;52199.44;5015048;28;19929;-70
2023/06/05 02:43:42;;;;;;;;;;;;;;;-144.99;95.10;52215.75;5023872;28;20421;-66
2023/06/05 02:46:09;;;;;;;;;;;;;;;-144.99;95.14;52185.16;5025189;28;19932;-67
2023/06/05 02:48:37;;;;;;;;;;;;;;;-144.99;95.08;52260.56;5021813;28;19952;-65
2023/06/05 02:51:06;;;;;;;;;;;;;;;-144.99;95.14;52183.13;5024241;28;20401;-65
2023/06/05 02:53:32;;;;;;;;;;;;;;;-144.99;95.25;52250.38;5023094;28;20444;-64
2023/06/05 02:56:01;;;;;;;;;;;;;;;-144.99;95.39;52232.03;5024998;28;20304;-63
2023/06/05 02:58:28;;;;;;;;;;;;;;;-144.99;95.37;52215.75;5020420;28;19960;-63
2023/06/05 03:00:55;;;;;;;;;;;;;;;-144.99;95.60;52207.59;5014125;28;20027;-63
2023/06/05 03:03:25;;;;;;;;;;;;;;;-144.99;95.63;52244.28;5024486;28;20023;-63
2023/06/05 03:05:53;;;;;;;;;;;;;;;-144.99;95.69;52203.50;5023732;28;20007;-64
2023/06/05 03:08:20;;;;;;;;;;;;;;;-144.99;95.59;52227.97;5024067;28;19965;-64
2023/06/05 03:10:47;;;;;;;;;;;;;;;-144.99;95.49;52244.28;5023140;28;19929;-64
2023/06/05 03:13:13;;;;;;;;;;;;;;;-144.99;95.65;52215.75;5021590;28;20381;-65
2023/06/05 03:15:42;;;;;;;;;;;;;;;-144.99;95.81;52201.47;5024857;28;19925;-64
2023/06/05 03:18:08;;;;;;;;;;;;;;;-144.99;95.75;52201.47;5022220;28;19956;-64
2023/06/05 03:20:36;;;;;;;;;;;;;;;-144.99;95.98;52191.28;5022234;28;20020;-66
2023/06/05 03:23:04;;;;;;;;;;;;;;;-144.99;96.16;52234.09;5025031;28;19929;-66
2023/06/05 03:25:30;;;;;;;;;;;;;;;-144.99;96.45;52227.97;5026019;28;19928;-66
2023/06/05 03:27:57;;;;;;;;;;;;;;;-144.99;96.25;52219.81;5024605;28;19936;-66
2023/06/05 03:30:23;;;;;;;;;;;;;;;-144.99;96.24;52207.59;5022356;28;19933;-66
2023/06/05 03:32:50;;;;;;;;;;;;;;;-144.99;96.23;52209.63;5017851;28;19968;-65
2023/06/05 03:35:18;;;;;;;;;;;;;;;-144.99;96.29;52181.09;5021601;28;20286;-66
2023/06/05 03:37:45;;;;;;;;;;;;;;;-144.99;96.24;52219.81;5025091;28;20350;-66
2023/06/05 03:40:13;;;;;;;;;;;;;;;-144.99;96.32;52219.81;5021361;28;19932;-66
2023/06/05 03:42:40;;;;;;;;;;;;;;;-144.99;96.08;52199.44;5016660;28;19925;-66
2023/06/05 03:45:08;;;;;;;;;;;;;;;-144.99;95.99;52219.81;5020577;28;19933;-68
2023/06/05 03:47:35;;;;;;;;;;;;;;;-144.99;96.09;52238.16;5021778;28;19987;-71
2023/06/05 03:50:02;;;;;;;;;;;;;;;-144.99;96.22;52223.88;5025164;28;19992;-70
2023/06/05 03:52:29;;;;;;;;;;;;;;;-144.99;95.99;52215.75;5011619;28;20317;-71
2023/06/05 03:54:55;;;;;;;;;;;;;;;-144.99;96.04;52211.66;5017223;28;20011;-68
2023/06/05 03:57:24;;;;;;;;;;;;;;;-144.99;96.33;52199.44;5025222;28;20370;-68
2023/06/05 03:59:50;;;;;;;;;;;;;;;-144.99;96.05;52240.19;5023405;28;20879;-67
2023/06/05 04:02:17;;;;;;;;;;;;;;;-144.99;96.12;52225.94;5018169;28;20346;-67
2023/06/05 04:04:44;;;;;;;;;;;;;;;-144.99;96.17;52203.50;5025156;28;19925;-69
2023/06/05 04:07:11;;;;;;;;;;;;;;;-144.99;96.03;52264.66;5016162;28;19926;-70
2023/06/05 04:09:37;;;;;;;;;;;;;;;-144.99;95.91;52240.19;5018556;28;20004;-65
2023/06/05 04:12:05;;;;;;;;;;;;;;;-144.99;96.03;52244.28;5019399;28;20074;-65
2023/06/05 04:14:33;;;;;;;;;;;;;;;-144.99;95.89;52248.34;5024675;28;19929;-65
2023/06/05 04:16:59;;;;;;;;;;;;;;;-144.99;95.76;52230.00;5027750;28;19929;-65
2023/06/05 04:19:26;;;;;;;;;;;;;;;-144.99;95.65;52199.44;5021537;28;20461;-65
2023/06/05 04:21:53;;;;;;;;;;;;;;;-144.99;95.56;52205.53;5028300;28;19929;-65
2023/06/05 04:24:19;;;;;;;;;;;;;;;-144.99;95.50;52209.63;5026988;28;19963;-66
2023/06/05 04:26:47;;;;;;;;;;;;;;;-144.99;95.66;52207.59;5028225;28;19956;-66
2023/06/05 04:29:15;;;;;;;;;;;;;;;-144.99;95.66;52215.75;5024880;28;19925;-65
2023/06/05 04:31:44;;;;;;;;;;;;;;;-144.99;95.50;52203.50;5024181;28;19996;-65
2023/06/05 04:34:10;;;;;;;;;;;;;;;-144.99;95.56;52211.66;5027354;28;20370;-65
2023/06/05 04:36:37;;;;;;;;;;;;;;;-144.99;95.30;52215.75;5026188;28;19940;-65
2023/06/05 04:39:07;;;;;;;;;;;;;;;-144.99;95.21;52227.97;5025886;28;19940;-65
2023/06/05 04:41:36;;;;;;;;;;;;;;;-144.99;95.44;52203.50;5027258;28;20414;-63
2023/06/05 04:44:02;;;;;;;;;;;;;;;-144.99;95.39;52219.81;5026512;28;19934;-64
2023/06/05 04:46:29;;;;;;;;;;;;;;;-144.99;95.30;52191.28;5025674;28;20416;-59
2023/06/05 04:48:57;;;;;;;;;;;;;;;-144.99;94.90;52136.25;5026853;28;20230;-60
2023/06/05 04:51:24;;;;;;;;;;;;;;;-144.99;94.57;52168.84;5025389;28;20051;-60
2023/06/05 04:53:52;;;;;;;;;;;;;;;-144.99;94.58;52191.28;5021901;28;19925;-60
2023/06/05 04:56:20;;;;;;;;;;;;;;;-144.99;94.08;52223.88;5022779;28;20004;-62
2023/06/05 04:58:47;;;;;;;;;;;;;;;-144.99;93.79;52211.66;5018726;28;19929;-62
2023/06/05 05:01:13;;;;;;;;;;;;;;;-144.99;93.53;52211.66;5022478;28;20299;-62
2023/06/05 05:03:42;;;;;;;;;;;;;;;-144.99;93.28;52199.44;5022444;28;19933;-62
2023/06/05 05:06:10;;;;;;;;;;;;;;;-144.99;93.01;52174.97;5025190;28;20023;-62
2023/06/05 05:08:37;;;;;;;;;;;;;;;-144.99;92.71;52179.06;5018223;28;20026;-62
2023/06/05 05:11:04;;;;;;;;;;;;;;;-144.99;92.42;52183.13;5021191;28;19929;-62
2023/06/05 05:13:30;;;;;;;;;;;;;;;-144.99;92.35;52170.91;5015914;28;19933;-62
2023/06/05 05:15:57;;;;;;;;;;;;;;;-144.99;91.85;52166.81;5027029;28;19944;-62
2023/06/05 05:18:23;;;;;;;;;;;;;;;-144.99;91.82;52179.06;5025017;28;19936;-62
2023/06/05 05:20:50;;;;;;;;;;;;;;;-144.99;91.66;52172.94;5026849;28;19983;-61
2023/06/05 05:23:18;;;;;;;;;;;;;;;-144.99;91.46;52183.13;5020223;28;19924;-63
2023/06/05 05:25:45;;;;;;;;;;;;;;;-144.99;91.53;52181.09;5023581;28;19929;-61
2023/06/05 05:28:11;;;;;;;;;;;;;;;-144.99;91.31;52158.66;5022322;28;19925;-63
2023/06/05 05:30:38;;;;;;;;;;;;;;;-144.99;91.15;52201.47;5023857;28;19925;-63
2023/06/05 05:33:05;;;;;;;;;;;;;;;-144.99;90.67;52160.72;5018577;28;19932;-63
2023/06/05 05:35:31;;;;;;;;;;;;;;;-144.99;90.41;52189.25;5027372;28;20414;-62
2023/06/05 05:37:58;;;;;;;;;;;;;;;-144.99;90.13;52215.75;5027712;28;19977;-62
2023/06/05 05:40:26;;;;;;;;;;;;;;;-144.99;89.88;52154.59;5024234;28;20518;-62
2023/06/05 05:42:53;;;;;;;;;;;;;;;-144.99;89.62;52181.09;5017250;28;20394;-63
2023/06/05 05:45:20;;;;;;;;;;;;;;;-144.99;89.20;52174.97;5025304;28;19925;-63
2023/06/05 05:47:46;;;;;;;;;;;;;;;-144.99;88.86;52162.75;5027089;28;19925;-63
2023/06/05 05:50:13;;;;;;;;;;;;;;;-144.99;88.93;52158.66;5025566;28;19929;-62
2023/06/05 05:52:40;;;;;;;;;;;;;;;-144.99;88.44;52164.78;5025306;28;19932;-63
2023/06/05 05:55:07;;;;;;;;;;;;;;;-144.99;88.42;52211.66;5024720;28;19929;-62
2023/06/05 05:57:35;;;;;;;;;;;;;;;-144.99;88.36;52138.28;5026314;28;20044;-63
2023/06/05 06:00:05;;;;;;;;;;;;;;;-144.99;88.01;52170.91;5025463;28;19959;-62
2023/06/05 06:02:32;;;;;;;;;;;;;;;-144.99;87.92;52158.66;5024967;28;20480;-63
2023/06/05 06:04:59;;;;;;;;;;;;;;;-144.99;87.48;52162.75;5025961;28;19929;-63
2023/06/05 06:07:26;;;;;;;;;;;;;;;-144.99;87.37;52203.50;5018517;28;20342;-62
2023/06/05 06:09:53;;;;;;;;;;;;;;;-144.99;86.85;52162.75;5023443;28;19959;-63
2023/06/05 06:12:20;;;;;;;;;;;;;;;-144.99;86.61;52181.09;5024572;28;20406;-63
2023/06/05 06:14:49;;;;;;;;;;;;;;;-144.99;86.76;52146.44;5021847;28;19929;-64
2023/06/05 06:17:16;;;;;;;;;;;;;;;-144.99;86.52;52132.19;5024781;28;19960;-63
2023/06/05 06:19:43;;;;;;;;;;;;;;;-144.99;86.21;52142.38;5025281;28;19947;-63
2023/06/05 06:22:12;;;;;;;;;;;;;;;-144.99;85.84;52113.84;4327989;28;10000636;-62
2023/06/05 06:24:38;;;;;;;;;;;;;;;-144.99;85.48;52174.97;5015439;28;20309;-63
2023/06/05 06:27:06;;;;;;;;;;;;;;;-144.99;85.05;52134.22;5018095;28;19951;-63
2023/06/05 06:29:32;;;;;;;;;;;;;;;-144.99;84.87;52154.59;5021118;28;19935;-62
2023/06/05 06:32:00;;;;;;;;;;;;;;;-144.99;84.91;52126.06;5019737;28;19991;-63
2023/06/05 06:34:27;;;;;;;;;;;;;;;-144.99;84.49;52113.84;5018975;28;19929;-63
2023/06/05 06:36:54;;;;;;;;;;;;;;;-144.99;83.87;52138.28;5023159;28;19936;-62
2023/06/05 06:39:22;;;;;;;;;;;;;;;-144.99;83.66;52126.06;5015952;28;19932;-62
2023/06/05 06:41:48;;;;;;;;;;;;;;;-144.99;83.42;52134.22;5015607;28;19939;-62
2023/06/05 06:44:15;;;;;;;;;;;;;;;-144.99;82.77;52146.44;5020089;28;19935;-62
2023/06/05 06:46:42;;;;;;;;;;;;;;;-144.99;82.81;52134.22;5019771;28;19925;-62
2023/06/05 06:49:10;;;;;;;;;;;;;;;-144.99;82.41;52113.84;5022333;28;19925;-62
2023/06/05 06:51:37;;;;;;;;;;;;;;;-144.99;82.29;52121.97;5018736;28;20101;-62
2023/06/05 06:54:03;;;;;;;;;;;;;;;-144.99;81.90;52134.22;5016035;28;20026;-62
2023/06/05 06:56:30;;;;;;;;;;;;;;;-144.99;81.22;52093.44;4675448;28;9999656;-62
2023/06/05 06:58:56;;;;;;;;;;;;;;;-144.99;80.87;52126.06;5019198;28;20217;-62
2023/06/05 07:01:24;;;;;;;;;;;;;;;-144.99;80.70;52154.59;5016433;28;19969;-65
2023/06/05 07:03:51;;;;;;;;;;;;;;;-144.99;80.32;52158.66;5020966;28;20350;-62
2023/06/05 07:06:21;;;;;;;;;;;;;;;-144.99;80.05;52099.56;5019786;28;19925;-63
2023/06/05 07:08:48;;;;;;;;;;;;;;;-144.99;79.83;52089.38;5017747;28;19929;-63
2023/06/05 07:11:15;;;;;;;;;;;;;;;-144.99;79.32;52097.53;5018356;28;20047;-63
2023/06/05 07:13:41;;;;;;;;;;;;;;;-144.99;79.01;52081.22;5017267;28;19975;-63
2023/06/05 07:16:08;;;;;;;;;;;;;;;-144.99;79.13;52117.91;5018456;28;19937;-63
2023/06/05 07:18:35;;;;;;;;;;;;;;;-144.99;78.84;52089.38;5019783;28;20060;-64
2023/06/05 07:21:03;;;;;;;;;;;;;;;-144.99;78.50;52060.84;5023403;28;19936;-63
2023/06/05 07:23:32;;;;;;;;;;;;;;;-144.99;78.50;52089.38;5020084;28;20349;-63
2023/06/05 07:25:59;;;;;;;;;;;;;;;-144.99;78.18;52097.53;5012733;28;20050;-63
2023/06/05 07:28:25;;;;;;;;;;;;;;;-144.99;77.77;52093.44;5018540;28;20243;-63
2023/06/05 07:30:52;;;;;;;;;;;;;;;-144.99;77.12;52087.34;5018032;28;19975;-63
2023/06/05 07:33:20;;;;;;;;;;;;;;;-144.99;77.00;52113.84;5018559;28;20032;-63
2023/06/05 07:35:48;;;;;;;;;;;;;;;-144.99;77.12;52105.69;5018171;28;19948;-62
2023/06/05 07:38:15;;;;;;;;;;;;;;;-144.99;77.21;52081.22;5019530;28;20489;-62
2023/06/05 07:40:43;;;;;;;;;;;;;;;-144.99;76.36;52121.97;5018753;28;20123;-62
2023/06/05 07:43:13;;;;;;;;;;;;;;;-144.99;76.54;52060.84;5020112;28;19936;-61
2023/06/05 07:45:40;;;;;;;;;;;;;;;-144.99;75.90;52101.59;5016759;28;19943;-61
2023/06/05 07:48:07;;;;;;;;;;;;;;;-144.99;75.74;52081.22;5021052;28;19936;-61
2023/06/05 07:50:33;;;;;;;;;;;;;;;-144.99;75.50;52097.53;5021519;28;19936;-62
2023/06/05 07:53:01;;;;;;;;;;;;;;;-144.99;75.17;52036.38;5016848;28;20393;-61
2023/06/05 07:55:27;;;;;;;;;;;;;;;-144.99;75.35;52075.09;5019489;28;20030;-61
2023/06/05 07:57:56;;;;;;;;;;;;;;;-144.99;74.98;52040.47;5014803;28;19936;-62
2023/06/05 08:00:24;;;;;;;;;;;;;;;-144.99;74.44;52020.09;5019700;28;19929;-62
2023/06/05 08:02:51;;;;;;;;;;;;;;;-144.99;73.88;52064.91;5021693;28;19929;-62
2023/06/05 08:05:19;;;;;;;;;;;;;;;-144.99;73.76;52040.47;5019891;28;19932;-61
2023/06/05 08:07:45;;;;;;;;;;;;;;;-144.99;73.36;52052.69;5021113;28;20030;-62
2023/06/05 08:10:12;;;;;;;;;;;;;;;-144.99;72.99;52087.34;5018589;28;20048;-62
2023/06/05 08:12:38;;;;;;;;;;;;;;;-144.99;72.99;52052.69;5021445;28;19925;-62
2023/06/05 08:15:07;;;;;;;;;;;;;;;-144.99;72.65;52056.78;5021186;28;19933;-62
2023/06/05 08:17:34;;;;;;;;;;;;;;;-144.99;71.99;52058.81;5022294;28;19931;-62
2023/06/05 08:20:01;;;;;;;;;;;;;;;-144.99;71.62;52056.78;5024537;28;19980;-63
2023/06/05 08:22:29;;;;;;;;;;;;;;;-144.99;71.33;52085.31;5019997;28;19959;-63
2023/06/05 08:24:57;;;;;;;;;;;;;;;-144.99;71.37;52052.69;5024690;28;19956;-61
2023/06/05 08:27:23;;;;;;;;;;;;;;;-144.99;71.65;52007.84;5022192;28;19934;-62
2023/06/05 08:29:51;;;;;;;;;;;;;;;-144.99;71.26;52052.69;5017966;28;19929;-61
2023/06/05 08:32:20;;;;;;;;;;;;;;;-144.99;70.35;52011.94;5025135;28;20350;-62
2023/06/05 08:34:47;;;;;;;;;;;;;;;-144.99;70.33;52056.78;5023935;28;19928;-62
2023/06/05 08:37:14;;;;;;;;;;;;;;;-144.99;70.48;52042.50;5025169;28;19929;-62
2023/06/05 08:39:41;;;;;;;;;;;;;;;-144.99;69.45;52050.66;5023771;28;20059;-62
2023/06/05 08:42:08;;;;;;;;;;;;;;;-144.99;71.15;52079.19;5024935;28;19943;-62
2023/06/05 08:44:34;;;;;;;;;;;;;;;-144.99;71.32;52097.53;5022924;28;20258;-61
2023/06/05 08:47:01;;;;;;;;;;;;;;;-144.99;71.34;52093.44;5025190;28;20117;-61
2023/06/05 08:49:30;;;;;;;;;;;;;;;-144.99;71.26;52073.06;5024018;28;20392;-61
2023/06/05 08:52:02;;;;;;;;;;;;;;;-144.99;70.89;52036.38;5024152;28;19929;-61
2023/06/05 08:54:32;;;;;;;;;;;;;;;-144.99;70.26;52036.38;5024016;28;20060;-62
2023/06/05 08:56:58;;;;;;;;;;;;;;;-144.99;69.78;52016.00;5019784;28;20021;-62
2023/06/05 08:59:26;;;;;;;;;;;;;;;-144.99;70.32;52024.16;5022587;28;19946;-61
2023/06/05 09:01:52;;;;;;;;;;;;;;;-144.99;69.62;52048.63;5019968;28;20386;-62
2023/06/05 09:04:19;;;;;;;;;;;;;;;-144.99;69.16;52048.63;5024899;28;19925;-62
2023/06/05 09:06:48;;;;;;;;;;;;;;;-144.99;67.98;52007.84;5029939;28;19935;-62
2023/06/05 09:09:15;;;;;;;;;;;;;;;-144.99;68.73;52073.06;5027886;28;19933;-66
2023/06/05 09:11:42;;;;;;;;;;;;;;;-144.99;68.28;52032.31;5030032;28;19933;-62
2023/06/05 09:14:08;;;;;;;;;;;;;;;-144.99;69.21;52056.78;5027617;28;20267;-62
2023/06/05 09:16:37;;;;;;;;;;;;;;;-144.99;68.64;52048.63;5027019;28;19929;-61
2023/06/05 09:19:04;;;;;;;;;;;;;;;-144.99;67.46;52042.50;5024869;28;19932;-61
2023/06/05 09:21:32;;;;;;;;;;;;;;;-144.99;66.72;52016.00;5024455;28;20374;-62
2023/06/05 09:24:14;;;;;;;;;;;;;;;-144.99;66.73;52024.16;5025206;28;19970;-62
2023/06/05 09:26:47;;;;;;;;;;;;;;;-144.99;66.25;52024.16;5016534;28;19929;-61
2023/06/05 09:29:13;;;;;;;;;;;;;;;-144.99;65.86;52009.91;5020035;28;19983;-62
2023/06/05 09:31:41;;;;;;;;;;;;;;;-144.99;65.91;52028.22;5025490;28;20342;-61
2023/06/05 09:34:08;;;;;;;;;;;;;;;-144.99;65.94;52064.91;5024485;28;19967;-63
2023/06/05 09:36:35;;;;;;;;;;;;;;;-144.99;66.42;52064.91;5023662;28;20393;-63
2023/06/05 09:39:16;;;;;;;;;;;;;;;-144.99;68.09;52044.53;5022936;28;19932;-63
2023/06/05 09:41:44;;;;;;;;;;;;;;;-144.99;67.44;52077.16;5020781;28;20243;-63
2023/06/05 09:44:11;;;;;;;;;;;;;;;-144.99;67.22;52030.28;5022007;28;19948;-62
2023/06/05 09:46:50;;;;;;;;;;;;;;;-144.99;66.63;52011.94;5023522;28;19925;-63
2023/06/05 09:49:17;;;;;;;;;;;;;;;-144.99;66.05;52044.53;5021193;28;19933;-63
2023/06/05 09:51:44;;;;;;;;;;;;;;;-144.99;67.39;52018.03;5023254;28;19925;-63
2023/06/05 09:54:12;;;;;;;;;;;;;;;-144.99;67.22;52018.03;5023334;28;19941;-63
2023/06/05 09:56:40;;;;;;;;;;;;;;;-144.99;67.30;52003.78;5023812;28;19941;-63
2023/06/05 09:59:08;;;;;;;;;;;;;;;-144.99;66.36;52007.84;5022138;28;19944;-62
2023/06/05 10:01:36;;;;;;;;;;;;;;;-144.99;65.16;51987.47;5023899;28;19951;-63
2023/06/05 10:04:06;;;;;;;;;;;;;;;-144.99;64.97;52040.47;5023387;28;19929;-62
2023/06/05 10:06:33;;;;;;;;;;;;;;;-144.99;65.48;51975.25;5021463;28;19933;-62
2023/06/05 10:09:01;;;;;;;;;;;;;;;-144.99;65.10;52028.22;5022006;28;20150;-62
2023/06/05 10:11:27;;;;;;;;;;;;;;;-144.99;65.19;51989.50;5022807;28;20028;-62
2023/06/05 10:13:58;;;;;;;;;;;;;;;-144.99;64.68;51987.47;5020904;28;20045;-62
2023/06/05 10:16:26;;;;;;;;;;;;;;;-144.99;64.25;51958.94;5022046;28;19940;-63
2023/06/05 10:18:56;;;;;;;;;;;;;;;-144.99;63.74;51938.56;5020648;28;20338;-63
2023/06/05 10:21:24;;;;;;;;;;;;;;;-144.99;63.61;51958.94;5020496;28;20176;-62
2023/06/05 10:23:52;;;;;;;;;;;;;;;-144.99;63.09;51950.78;5021556;28;20347;-62
2023/06/05 10:26:27;;;;;;;;;;;;;;;-144.99;63.15;51985.44;5017597;28;20036;-62
2023/06/05 10:29:00;;;;;;;;;;;;;;;-144.99;63.49;51975.25;5019949;28;19964;-63
2023/06/05 10:31:34;;;;;;;;;;;;;;;-144.99;62.83;51958.94;5022457;28;20016;-62
2023/06/05 10:34:05;;;;;;;;;;;;;;;-144.99;62.17;51940.59;5026156;28;19929;-63
2023/06/05 10:36:47;;;;;;;;;;;;;;;-144.99;62.22;51975.25;5026014;28;19929;-63
2023/06/05 10:39:15;;;;;;;;;;;;;;;-144.99;62.07;51950.78;5024761;28;20485;-63
2023/06/05 10:41:42;;;;;;;;;;;;;;;-144.99;62.35;51938.56;5020590;28;19968;-63
2023/06/05 10:44:08;;;;;;;;;;;;;;;-144.99;62.38;51975.25;5022774;28;20274;-63
2023/06/05 10:46:37;;;;;;;;;;;;;;;-144.99;62.86;52003.78;5014904;28;19925;-63
2023/06/05 10:49:11;;;;;;;;;;;;;;;-144.99;63.03;52056.78;4673707;28;9999639;-56
2023/06/05 10:51:39;;;;;;;;;;;;;;;-144.99;63.94;52020.09;5014428;28;19933;-63
2023/06/05 10:54:06;;;;;;;;;;;;;;;-144.99;64.34;52052.69;5016337;28;20511;-62
2023/06/05 10:56:51;;;;;;;;;;;;;;;-144.99;64.86;52044.53;5020936;28;19986;-56
2023/06/05 10:59:20;;;;;;;;;;;;;;;-144.99;65.57;52030.28;5018564;28;19972;-57
2023/06/05 11:02:11;;;;;;;;;;;;;;;-144.99;64.52;51983.41;5019312;28;19951;-62
2023/06/05 11:04:52;;;;;;;;;;;;;;;-144.99;63.49;51944.69;5017956;28;19947;-62
2023/06/05 11:07:22;;;;;;;;;;;;;;;-144.99;62.99;51950.78;5006559;28;20187;-62
2023/06/05 11:10:04;;;;;;;;;;;;;;;-144.99;61.90;51954.88;5020935;28;20021;-62
2023/06/05 11:12:46;;;;;;;;;;;;;;;-144.99;61.75;51891.69;5018495;28;20835;-64
2023/06/05 11:15:13;;;;;;;;;;;;;;;-144.99;60.58;51930.41;5015961;28;20336;-63
2023/06/05 11:17:41;;;;;;;;;;;;;;;-144.99;60.64;51901.88;5021657;28;19953;-62
2023/06/05 11:20:09;;;;;;;;;;;;;;;-144.99;60.35;51885.56;5021594;28;20387;-63
2023/06/05 11:23:07;;;;;;;;;;;;;;;-144.99;59.96;51903.91;5017952;28;20297;-63
2023/06/05 11:25:34;;;;;;;;;;;;;;;-144.99;59.89;51930.41;5017965;28;19993;-62
2023/06/05 11:28:02;;;;;;;;;;;;;;;-144.99;59.37;51930.41;5015401;28;19953;-62
2023/06/05 11:30:32;;;;;;;;;;;;;;;-144.99;59.81;51967.09;5019542;28;20382;-63
2023/06/05 11:33:08;;;;;;;;;;;;;;;-144.99;59.70;51918.19;5011732;28;19952;-63
2023/06/05 11:35:35;;;;;;;;;;;;;;;-144.99;59.54;51928.38;5019060;28;19994;-63
2023/06/05 11:38:08;;;;;;;;;;;;;;;-144.99;59.22;51873.34;5019405;28;19946;-62
2023/06/05 11:40:35;;;;;;;;;;;;;;;-144.99;58.16;51885.56;5018579;28;20134;-62
2023/06/05 11:43:05;;;;;;;;;;;;;;;-144.99;57.84;51893.72;5020596;28;20392;-62
2023/06/05 11:45:33;;;;;;;;;;;;;;;-144.99;57.54;51922.25;5011208;28;19952;-63
2023/06/05 11:48:08;;;;;;;;;;;;;;;-144.99;57.77;51912.06;5021464;28;20291;-63
2023/06/05 11:50:35;;;;;;;;;;;;;;;-144.99;57.93;51885.56;5024288;28;20037;-63
2023/06/05 11:53:05;;;;;;;;;;;;;;;-144.99;57.64;51914.09;5025332;28;19967;-63
2023/06/05 11:55:42;;;;;;;;;;;;;;;-144.99;56.92;51910.03;5016240;28;19958;-63
2023/06/05 11:58:09;;;;;;;;;;;;;;;-144.99;57.79;51897.81;5019999;28;19941;-63
2023/06/05 12:00:36;;;;;;;;;;;;;;;-144.99;57.22;51946.72;5025432;28;19950;-63
2023/06/05 12:03:03;;;;;;;;;;;;;;;-144.99;57.57;51954.88;5022974;28;19953;-63
2023/06/05 12:05:31;;;;;;;;;;;;;;;-144.99;58.13;51975.25;5022552;28;20259;-63
2023/06/05 12:07:58;;;;;;;;;;;;;;;-144.99;59.00;51958.94;5020942;28;19955;-64
2023/06/05 12:10:34;;;;;;;;;;;;;;;-144.99;59.02;51920.22;5025446;28;19974;-63
2023/06/05 12:13:01;;;;;;;;;;;;;;;-144.99;59.01;51914.09;5020387;28;20144;-63
2023/06/05 12:15:28;;;;;;;;;;;;;;;-144.99;58.04;51938.56;5023244;28;19951;-63
2023/06/05 12:17:56;;;;;;;;;;;;;;;-144.99;58.05;51938.56;5022950;28;20423;-63
2023/06/05 12:20:22;;;;;;;;;;;;;;;-144.99;57.96;51954.88;5023661;28;19973;-63
2023/06/05 12:22:51;;;;;;;;;;;;;;;-144.99;57.64;51861.13;5025210;28;19949;-63
2023/06/05 12:25:18;;;;;;;;;;;;;;;-144.99;57.24;51905.97;5022049;28;19950;-63
2023/06/05 12:27:45;;;;;;;;;;;;;;;-144.99;56.95;51885.56;5026067;28;19954;-63
2023/06/05 12:30:13;;;;;;;;;;;;;;;-144.99;57.01;51918.19;5023062;28;20000;-63